createdAt,value
2023-08-15T00:01:14.910Z,1.73
2023-08-15T00:04:17.505Z,1.25
2023-08-15T00:07:20.729Z,2.08
2023-08-15T00:10:24.027Z,2.80
2023-08-15T00:13:27.590Z,2.60
2023-08-15T00:16:31.443Z,2.50
2023-08-15T00:19:33.763Z,2.65
2023-08-15T00:22:36.775Z,1.90
2023-08-15T00:25:40.271Z,2.00
2023-08-15T00:28:43.757Z,3.05
2023-08-15T00:31:46.421Z,3.47
2023-08-15T00:34:48.964Z,1.42
2023-08-15T00:37:51.346Z,3.13
2023-08-15T00:40:54.477Z,2.58
2023-08-15T00:43:57.933Z,2.35
2023-08-15T00:47:01.059Z,1.65
2023-08-15T00:50:03.447Z,2.35
2023-08-15T00:53:06.228Z,1.98
2023-08-15T00:56:09.469Z,1.67
2023-08-15T00:59:12.531Z,1.90
2023-08-15T01:02:16.138Z,2.33
2023-08-15T01:05:20.159Z,1.52
2023-08-15T01:08:22.574Z,4.00
2023-08-15T01:11:25.167Z,2.05
2023-08-15T01:14:28.195Z,1.35
2023-08-15T01:17:31.232Z,1.77
2023-08-15T01:20:35.929Z,1.33
2023-08-15T01:23:40.552Z,1.77
2023-08-15T01:26:43.302Z,2.28
2023-08-15T01:29:45.678Z,2.22
2023-08-15T01:32:48.242Z,1.85
2023-08-15T01:35:50.921Z,4.35
2023-08-15T01:38:54.015Z,1.65
2023-08-15T01:41:56.170Z,2.10
2023-08-15T01:44:59.608Z,1.42
2023-08-15T01:48:02.375Z,1.90
2023-08-15T01:51:05.508Z,2.22
2023-08-15T01:54:08.165Z,2.75
2023-08-15T01:57:11.051Z,2.33
2023-08-15T02:00:14.376Z,1.98
2023-08-15T02:03:20.338Z,2.00
2023-08-15T02:06:23.123Z,2.70
2023-08-15T02:09:25.553Z,2.40
2023-08-15T02:12:28.188Z,1.50
2023-08-15T02:15:31.256Z,2.72
2023-08-15T02:18:34.294Z,2.63
2023-08-15T02:21:36.750Z,1.90
2023-08-15T02:24:39.321Z,1.70
2023-08-15T02:27:41.562Z,3.28
2023-08-15T02:30:44.232Z,1.70
2023-08-15T02:33:47.046Z,3.60
2023-08-15T02:36:49.636Z,2.08
2023-08-15T02:39:52.717Z,2.75
2023-08-15T02:42:55.541Z,1.95
2023-08-15T02:45:58.869Z,1.92
2023-08-15T02:49:02.612Z,2.00
2023-08-15T02:52:04.834Z,2.72
2023-08-15T02:55:07.352Z,3.60
2023-08-15T02:58:09.592Z,1.60
2023-08-15T03:01:12.523Z,1.83
2023-08-15T03:04:16.339Z,1.60
2023-08-15T03:07:19.945Z,4.07
2023-08-15T03:10:24.001Z,2.35
2023-08-15T03:13:26.979Z,3.55
2023-08-15T03:16:29.788Z,3.63
2023-08-15T03:19:32.637Z,2.88
2023-08-15T03:22:35.059Z,5.15
2023-08-15T03:25:38.132Z,1.50
2023-08-15T03:28:40.774Z,3.38
2023-08-15T03:31:43.633Z,3.33
2023-08-15T03:34:47.612Z,4.43
2023-08-15T03:37:50.351Z,7.30
2023-08-15T03:40:52.983Z,11.00
2023-08-15T03:43:56.665Z,12.68
2023-08-15T03:46:59.975Z,12.10
2023-08-15T03:50:02.328Z,15.68
2023-08-15T03:53:05.608Z,19.00
2023-08-15T03:56:09.020Z,13.35
2023-08-15T03:59:11.676Z,17.73
2023-08-15T04:02:14.432Z,14.35
2023-08-15T04:05:17.220Z,20.80
2023-08-15T04:08:21.128Z,18.15
2023-08-15T04:11:23.830Z,21.58
2023-08-15T04:14:25.998Z,14.38
2023-08-15T04:17:28.760Z,17.95
2023-08-15T04:20:32.447Z,15.73
2023-08-15T04:23:35.251Z,13.18
2023-08-15T04:26:37.848Z,13.73
2023-08-15T04:29:40.539Z,13.52
2023-08-15T04:32:43.176Z,12.60
2023-08-15T04:35:45.578Z,11.07
2023-08-15T04:38:48.308Z,11.82
2023-08-15T04:41:51.923Z,11.32
2023-08-15T04:44:54.597Z,8.68
2023-08-15T04:47:57.314Z,9.63
2023-08-15T04:51:00.878Z,9.15
2023-08-15T04:54:03.697Z,11.68
2023-08-15T04:57:06.121Z,8.98
2023-08-15T05:00:08.677Z,8.50
2023-08-15T05:03:11.293Z,8.23
2023-08-15T05:06:13.929Z,8.32
2023-08-15T05:09:16.293Z,7.68
2023-08-15T05:12:18.985Z,9.27
2023-08-15T05:15:21.811Z,7.78
2023-08-15T05:18:24.598Z,8.02
2023-08-15T05:21:27.304Z,7.40
2023-08-15T05:24:29.928Z,9.00
2023-08-15T05:27:33.158Z,7.03
2023-08-15T05:30:36.036Z,9.00
2023-08-15T05:33:39.001Z,7.35
2023-08-15T05:36:42.032Z,5.63
2023-08-15T05:39:44.352Z,6.38
2023-08-15T05:42:46.433Z,9.57
2023-08-15T05:45:49.259Z,5.40
2023-08-15T05:48:52.214Z,6.05
2023-08-15T05:51:55.363Z,5.05
2023-08-15T05:54:58.261Z,6.03
2023-08-15T05:58:01.234Z,5.43
2023-08-15T06:01:04.424Z,7.28
2023-08-15T06:04:08.183Z,4.93
2023-08-15T06:07:10.601Z,5.40
2023-08-15T06:10:13.068Z,5.63
2023-08-15T06:13:16.133Z,6.97
2023-08-15T06:16:18.802Z,6.75
2023-08-15T06:19:21.316Z,5.10
2023-08-15T06:22:25.222Z,5.13
2023-08-15T06:25:28.825Z,5.30
2023-08-15T06:28:31.935Z,5.13
2023-08-15T06:31:34.705Z,5.93
2023-08-15T06:34:37.452Z,4.85
2023-08-15T06:37:39.762Z,5.00
2023-08-15T06:40:42.113Z,5.68
2023-08-15T06:43:45.270Z,5.40
2023-08-15T06:46:49.156Z,6.03
2023-08-15T06:49:52.494Z,4.47
2023-08-15T06:52:56.128Z,4.88
2023-08-15T06:55:58.599Z,4.43
2023-08-15T06:59:01.075Z,3.83
2023-08-15T07:02:05.043Z,5.50
2023-08-15T07:05:09.186Z,2.95
2023-08-15T07:08:12.653Z,3.72
2023-08-15T07:11:15.575Z,4.45
2023-08-15T07:14:19.233Z,3.45
2023-08-15T07:17:22.445Z,5.18
2023-08-15T07:20:25.582Z,5.47
2023-08-15T07:23:28.383Z,4.88
2023-08-15T07:26:30.758Z,5.63
2023-08-15T07:29:33.213Z,5.25
2023-08-15T07:32:35.468Z,6.95
2023-08-15T07:35:38.680Z,5.45
2023-08-15T07:38:41.874Z,4.30
2023-08-15T07:41:44.533Z,5.35
2023-08-15T07:44:47.333Z,3.55
2023-08-15T07:47:50.599Z,5.13
2023-08-15T07:50:53.948Z,4.30
2023-08-15T07:53:57.162Z,2.80
2023-08-15T07:57:00.248Z,4.35
2023-08-15T08:00:02.439Z,3.22
2023-08-15T08:03:14.574Z,3.65
2023-08-15T08:09:23.466Z,3.30
2023-08-15T08:12:27.293Z,2.30
2023-08-15T08:15:29.815Z,4.07
2023-08-15T08:18:32.589Z,4.03
2023-08-15T08:21:35.431Z,3.65
2023-08-15T08:24:38.746Z,3.00
2023-08-15T08:27:42.280Z,2.67
2023-08-15T08:30:44.556Z,1.65
2023-08-15T08:33:47.249Z,2.15
2023-08-15T08:36:49.657Z,2.83
2023-08-15T08:39:52.040Z,3.08
2023-08-15T08:42:54.677Z,3.53
2023-08-15T08:45:58.091Z,2.58
2023-08-15T08:49:00.687Z,2.30
2023-08-15T08:52:03.476Z,2.83
2023-08-15T08:55:05.959Z,4.00
2023-08-15T08:58:09.826Z,2.47
2023-08-15T09:01:14.038Z,2.25
2023-08-15T09:04:16.649Z,2.38
2023-08-15T09:07:19.587Z,2.05
2023-08-15T09:10:22.235Z,2.42
2023-08-15T09:13:24.583Z,2.33
2023-08-15T09:16:27.533Z,2.30
2023-08-15T09:19:30.200Z,2.10
2023-08-15T09:22:33.317Z,3.05
2023-08-15T09:25:36.613Z,2.67
2023-08-15T09:28:40.474Z,3.92
2023-08-15T09:31:43.639Z,3.10
2023-08-15T09:34:45.884Z,1.92
2023-08-15T09:37:48.411Z,3.42
2023-08-15T09:40:51.497Z,2.22
2023-08-15T09:43:54.877Z,2.40
2023-08-15T09:46:58.253Z,4.57
2023-08-15T09:50:00.619Z,3.33
2023-08-15T09:53:03.415Z,3.17
2023-08-15T09:56:06.573Z,2.55
2023-08-15T09:59:09.345Z,2.95
2023-08-15T10:02:13.081Z,3.63
2023-08-15T10:05:16.167Z,3.33
2023-08-15T10:08:18.461Z,3.17
2023-08-15T10:11:21.659Z,3.60
2023-08-15T10:14:24.462Z,2.85
2023-08-15T10:17:27.522Z,4.38
2023-08-15T10:20:30.463Z,4.97
2023-08-15T10:23:32.884Z,8.65
2023-08-15T10:26:35.730Z,5.95
2023-08-15T10:29:38.423Z,7.63
2023-08-15T10:32:41.288Z,8.30
2023-08-15T10:35:44.300Z,13.73
2023-08-15T10:38:48.177Z,39.50
2023-08-15T10:41:51.160Z,44.17
2023-08-15T10:44:54.075Z,29.48
2023-08-15T10:47:57.629Z,24.70
2023-08-15T10:51:00.584Z,13.60
2023-08-15T10:54:03.700Z,10.65
2023-08-15T10:57:07.504Z,9.95
2023-08-15T11:00:10.532Z,15.60
2023-08-15T11:03:12.954Z,12.25
2023-08-15T11:06:15.274Z,9.50
2023-08-15T11:09:18.406Z,9.75
2023-08-15T11:12:21.668Z,8.05
2023-08-15T11:15:24.701Z,7.95
2023-08-15T11:18:27.569Z,9.70
2023-08-15T11:21:29.815Z,7.03
2023-08-15T11:24:32.852Z,9.02
2023-08-15T11:27:36.124Z,7.28
2023-08-15T11:30:39.578Z,5.97
2023-08-15T11:33:42.636Z,7.47
2023-08-15T11:36:46.145Z,9.77
2023-08-15T11:39:49.391Z,9.50
2023-08-15T11:42:52.694Z,8.50
2023-08-15T11:45:55.990Z,7.22
2023-08-15T11:48:59.929Z,4.88
2023-08-15T11:52:03.028Z,8.23
2023-08-15T11:55:05.555Z,6.95
2023-08-15T11:58:08.381Z,7.85
2023-08-15T12:01:11.240Z,6.53
2023-08-15T12:04:13.848Z,6.40
2023-08-15T12:07:16.583Z,5.95
2023-08-15T12:10:18.827Z,8.45
2023-08-15T12:13:21.269Z,8.48
2023-08-15T12:16:26.090Z,6.97
2023-08-15T12:19:29.709Z,5.35
2023-08-15T12:22:31.793Z,8.60
2023-08-15T12:25:34.592Z,5.45
2023-08-15T12:28:37.337Z,6.15
2023-08-15T12:31:40.457Z,5.05
2023-08-15T12:34:43.477Z,5.22
2023-08-15T12:37:46.683Z,4.28
2023-08-15T12:40:49.116Z,4.68
2023-08-15T12:43:52.265Z,3.05
2023-08-15T12:46:54.864Z,4.90
2023-08-15T12:49:57.938Z,3.85
2023-08-15T12:53:01.340Z,4.45
2023-08-15T12:56:05.106Z,3.70
2023-08-15T12:59:07.853Z,2.53
2023-08-15T13:02:10.255Z,3.42
2023-08-15T13:05:12.799Z,3.10
2023-08-15T13:08:15.245Z,3.08
2023-08-15T13:11:17.999Z,6.38
2023-08-15T13:14:27.846Z,8.82
2023-08-15T13:17:35.854Z,6.82
2023-08-15T13:20:38.932Z,7.68
2023-08-15T13:23:44.654Z,9.13
2023-08-15T13:26:50.105Z,5.78
2023-08-15T13:29:54.242Z,6.55
2023-08-15T13:32:57.326Z,7.80
2023-08-15T13:36:00.106Z,5.75
2023-08-15T13:39:03.574Z,6.50
2023-08-15T13:42:08.401Z,3.70
2023-08-15T13:45:12.438Z,5.10
2023-08-15T13:48:15.731Z,4.95
2023-08-15T13:51:19.334Z,3.40
2023-08-15T13:54:22.177Z,4.88
2023-08-15T13:57:25.072Z,5.13
2023-08-15T14:00:28.365Z,6.22
2023-08-15T14:03:32.473Z,3.00
2023-08-15T14:06:35.827Z,3.45
2023-08-15T14:09:39.388Z,2.60
2023-08-15T14:12:42.138Z,3.55
2023-08-15T14:15:44.846Z,3.15
2023-08-15T14:18:47.872Z,3.40
2023-08-15T14:21:50.587Z,3.83
2023-08-15T14:24:53.710Z,3.50
2023-08-15T14:27:56.056Z,3.08
2023-08-15T14:30:59.056Z,3.42
2023-08-15T14:34:02.110Z,2.97
2023-08-15T14:37:05.751Z,2.58
2023-08-15T14:40:08.618Z,4.45
2023-08-15T14:43:12.380Z,4.00
2023-08-15T14:46:15.802Z,3.53
2023-08-15T14:49:18.615Z,2.55
2023-08-15T14:52:22.110Z,2.17
2023-08-15T14:55:25.258Z,2.15
2023-08-15T14:58:27.656Z,2.13
2023-08-15T15:01:30.539Z,2.28
2023-08-15T15:04:32.553Z,2.10
2023-08-15T15:07:35.731Z,3.08
2023-08-15T15:10:38.695Z,2.17
2023-08-15T15:13:41.296Z,2.92
2023-08-15T15:16:43.907Z,2.75
2023-08-15T15:19:47.242Z,2.15
2023-08-15T15:22:51.201Z,2.50
2023-08-15T15:25:55.232Z,3.50
2023-08-15T15:28:58.580Z,3.35
2023-08-15T15:32:01.689Z,1.90
2023-08-15T15:35:04.545Z,2.92
2023-08-15T15:38:07.353Z,3.28
2023-08-15T15:41:10.077Z,2.20
2023-08-15T15:44:13.294Z,1.45
2023-08-15T15:47:16.043Z,2.08
2023-08-15T15:50:19.661Z,2.03
2023-08-15T15:53:22.851Z,1.95
2023-08-15T15:56:26.365Z,1.17
2023-08-15T15:59:28.971Z,1.95
2023-08-15T16:02:32.307Z,1.58
2023-08-15T16:05:35.228Z,1.25
2023-08-15T16:08:39.138Z,1.85
2023-08-15T16:11:42.230Z,1.27
2023-08-15T16:14:45.458Z,2.67
2023-08-15T16:17:48.758Z,1.35
2023-08-15T16:20:51.867Z,1.88
2023-08-15T16:23:54.140Z,2.05
2023-08-15T16:26:57.170Z,1.20
2023-08-15T16:30:14.859Z,0.82
2023-08-15T16:33:20.151Z,1.67
2023-08-15T16:36:23.084Z,0.93
2023-08-15T16:39:25.953Z,1.00
2023-08-15T16:42:28.771Z,1.27
2023-08-15T16:45:32.036Z,1.80
2023-08-15T16:48:35.926Z,2.20
2023-08-15T16:51:39.169Z,3.08
2023-08-15T16:54:42.290Z,4.57
2023-08-15T16:57:45.587Z,2.70
2023-08-15T17:00:49.155Z,3.25
2023-08-15T17:03:51.748Z,3.22
2023-08-15T17:06:55.509Z,3.10
2023-08-15T17:09:58.630Z,3.38
2023-08-15T17:13:00.961Z,4.28
2023-08-15T17:16:03.906Z,3.53
2023-08-15T17:19:06.209Z,3.03
2023-08-15T17:22:08.756Z,3.35
2023-08-15T17:25:12.229Z,2.85
2023-08-15T17:28:15.698Z,2.95
2023-08-15T17:31:19.141Z,3.03
2023-08-15T17:34:22.681Z,3.78
2023-08-15T17:37:25.498Z,3.03
2023-08-15T17:40:27.972Z,4.30
2023-08-15T17:43:31.070Z,3.90
2023-08-15T17:46:34.130Z,3.53
2023-08-15T17:49:37.009Z,4.55
2023-08-15T17:52:40.073Z,4.82
2023-08-15T17:55:43.193Z,4.28
2023-08-15T17:58:47.468Z,3.50
2023-08-15T18:01:50.514Z,3.47
2023-08-15T18:04:53.918Z,4.32
2023-08-15T18:07:57.989Z,3.47
2023-08-15T18:11:00.693Z,4.05
2023-08-15T18:14:03.592Z,4.35
2023-08-15T18:17:06.516Z,4.40
2023-08-15T18:20:09.287Z,4.13
2023-08-15T18:23:12.070Z,5.35
2023-08-15T18:26:14.311Z,3.17
2023-08-15T18:29:17.181Z,2.00
2023-08-15T18:32:20.845Z,3.50
2023-08-15T18:35:24.845Z,3.92
2023-08-15T18:38:28.450Z,3.95
2023-08-15T18:41:31.998Z,4.28
2023-08-15T18:44:35.174Z,3.55
2023-08-15T18:47:39.316Z,3.60
2023-08-15T18:50:43.114Z,3.28
2023-08-15T18:53:46.370Z,4.82
2023-08-15T18:56:50.105Z,3.13
2023-08-15T18:59:53.649Z,4.47
2023-08-15T19:02:56.553Z,4.88
2023-08-15T19:06:00.379Z,4.97
2023-08-15T19:09:02.769Z,3.92
2023-08-15T19:12:05.609Z,4.07
2023-08-15T19:15:07.834Z,3.65
2023-08-15T19:18:10.806Z,3.13
2023-08-15T19:21:13.819Z,2.88
2023-08-15T19:24:16.692Z,3.97
2023-08-15T19:27:19.097Z,4.95
2023-08-15T19:30:21.853Z,4.88
2023-08-15T19:33:24.937Z,4.05
2023-08-15T19:36:27.841Z,3.65
2023-08-15T19:39:30.697Z,3.90
2023-08-15T19:42:33.403Z,3.40
2023-08-15T19:45:36.724Z,3.78
2023-08-15T19:48:40.026Z,7.20
2023-08-15T19:51:42.997Z,2.88
2023-08-15T19:54:46.415Z,4.22
2023-08-15T19:57:49.874Z,2.83
2023-08-15T20:00:52.303Z,5.47
2023-08-15T20:03:55.561Z,4.68
2023-08-15T20:06:59.198Z,3.42
2023-08-15T20:10:11.020Z,1.88
2023-08-15T20:13:15.185Z,4.32
2023-08-15T20:16:18.230Z,3.70
2023-08-15T20:19:20.990Z,2.20
2023-08-15T20:22:24.703Z,3.47
2023-08-15T20:25:28.055Z,2.78
2023-08-15T20:28:30.835Z,1.85
2023-08-15T20:31:33.670Z,3.45
2023-08-15T20:34:36.471Z,3.58
2023-08-15T20:37:39.278Z,2.60
2023-08-15T20:40:42.750Z,1.10
2023-08-15T20:43:46.863Z,1.50
2023-08-15T20:46:49.985Z,2.72
2023-08-15T20:49:53.220Z,2.42
2023-08-15T20:52:57.147Z,2.28
2023-08-15T20:56:00.181Z,1.60
2023-08-15T20:59:03.223Z,1.10
2023-08-15T21:02:05.986Z,2.20
2023-08-15T21:05:09.098Z,3.47
2023-08-15T21:08:12.217Z,3.72
2023-08-15T21:11:16.199Z,1.20
2023-08-15T21:14:19.727Z,1.77
2023-08-15T21:17:22.672Z,1.25
2023-08-15T21:20:25.724Z,1.38
2023-08-15T21:23:28.601Z,1.02
2023-08-15T21:26:31.704Z,1.73
2023-08-15T21:29:34.870Z,1.77
2023-08-15T21:32:38.040Z,2.03
2023-08-15T21:35:40.679Z,1.15
2023-08-15T21:38:43.961Z,1.55
2023-08-15T21:41:46.846Z,1.95
2023-08-15T21:44:49.683Z,1.10
2023-08-15T21:47:53.042Z,0.93
2023-08-15T21:50:56.328Z,1.00
2023-08-15T21:53:59.261Z,1.33
2023-08-15T21:57:02.313Z,1.45
2023-08-15T22:00:05.894Z,1.17
2023-08-15T22:03:13.962Z,1.88
2023-08-15T22:06:17.026Z,1.70
2023-08-15T22:09:20.150Z,2.65
2023-08-15T22:12:22.490Z,2.42
2023-08-15T22:15:25.431Z,0.93
2023-08-15T22:18:28.906Z,1.40
2023-08-15T22:21:32.110Z,1.02
2023-08-15T22:24:34.922Z,2.45
2023-08-15T22:27:38.095Z,2.60
2023-08-15T22:30:41.157Z,2.08
2023-08-15T22:33:43.961Z,1.27
2023-08-15T22:36:47.577Z,3.05
2023-08-15T22:39:50.540Z,3.15
2023-08-15T22:42:53.626Z,1.55
2023-08-15T22:45:56.663Z,1.90
2023-08-15T22:48:58.976Z,2.42
2023-08-15T22:52:01.689Z,1.38
2023-08-15T22:55:04.126Z,1.25
2023-08-15T22:58:06.664Z,2.00
2023-08-15T23:01:08.977Z,1.85
2023-08-15T23:04:12.211Z,1.77
2023-08-15T23:07:15.292Z,2.10
2023-08-15T23:10:17.875Z,1.33
2023-08-15T23:13:20.667Z,1.60
2023-08-15T23:16:24.280Z,1.40
2023-08-15T23:19:27.266Z,1.77
2023-08-15T23:22:29.978Z,1.55
2023-08-15T23:25:32.915Z,2.05
2023-08-15T23:28:36.265Z,1.40
2023-08-15T23:31:39.607Z,2.85
2023-08-15T23:34:42.366Z,1.63
2023-08-15T23:37:45.162Z,1.25
2023-08-15T23:40:47.920Z,1.48
2023-08-15T23:43:50.690Z,1.58
2023-08-15T23:46:53.447Z,2.10
2023-08-15T23:49:56.232Z,1.15
2023-08-15T23:52:58.557Z,1.50
2023-08-15T23:56:01.503Z,2.65
2023-08-15T23:59:04.279Z,2.15
